Taft, Ohio
Current Conditions -  °F | °C
As of 8:53 PM on Sunday 28 Dec 2014 (Local Time) from KLUK Reporting Station
Clear Clear  
Wind Chill: 35°   Ceiling: Unl
Heat Index: 35°   Visibility: 10mi
Dew Point: 29°   Wind: 0mph
Humidity: 78%   Direction: NA
Pressure: 30.21"   Gusts: NA
Location:  39.2094°N, 84.3952°W
Report Text: KLUK 290153Z 00000KT 10SM CLR 02/M02 A3021 RMK AO2 SLP234 T00171017
Loading
Personal Weather Stations






























Interactive Weather Map New forecast layout! Learn more

10-Day Weather Forecast

Advertisements
Track Severe Weather on mobile